createdAt,value
2023-10-21T00:01:56.420Z,22.34
2023-10-21T00:04:24.929Z,22.39
2023-10-21T00:06:52.321Z,22.25
2023-10-21T00:09:20.085Z,22.26
2023-10-21T00:11:47.419Z,22.31
2023-10-21T00:14:15.678Z,22.24
2023-10-21T00:16:42.903Z,22.28
2023-10-21T00:19:12.201Z,22.43
2023-10-21T00:21:40.530Z,22.50
2023-10-21T00:24:08.552Z,22.52
2023-10-21T00:26:49.783Z,22.73
2023-10-21T00:29:18.049Z,22.77
2023-10-21T00:31:45.854Z,22.71
2023-10-21T00:34:13.578Z,22.50
2023-10-21T00:36:40.995Z,22.50
2023-10-21T00:39:14.454Z,22.34
2023-10-21T00:41:41.857Z,22.28
2023-10-21T00:44:10.017Z,22.37
2023-10-21T00:46:38.006Z,22.41
2023-10-21T00:49:05.957Z,22.40
2023-10-21T00:51:36.792Z,22.53
2023-10-21T00:54:06.740Z,22.58
2023-10-21T00:56:41.068Z,22.46
2023-10-21T00:59:15.593Z,22.48
2023-10-21T01:01:45.422Z,22.56
2023-10-21T01:04:15.872Z,22.42
2023-10-21T01:06:44.885Z,22.46
2023-10-21T01:09:15.598Z,22.37
2023-10-21T01:11:43.679Z,22.27
2023-10-21T01:14:11.445Z,22.30
2023-10-21T01:16:39.438Z,22.20
2023-10-21T01:19:08.879Z,22.24
2023-10-21T01:21:36.123Z,22.18
2023-10-21T01:24:04.964Z,22.15
2023-10-21T01:26:32.498Z,22.35
2023-10-21T01:29:01.048Z,22.38
2023-10-21T01:31:33.951Z,22.80
2023-10-21T01:34:03.332Z,22.94
2023-10-21T01:36:30.722Z,22.81
2023-10-21T01:38:58.378Z,22.90
2023-10-21T01:41:25.787Z,22.90
2023-10-21T01:44:12.190Z,22.92
2023-10-21T01:46:39.684Z,22.93
2023-10-21T01:49:07.297Z,23.01
2023-10-21T01:51:34.513Z,23.07
2023-10-21T01:54:02.142Z,23.12
2023-10-21T01:56:29.424Z,23.17
2023-10-21T01:58:57.923Z,23.20
2023-10-21T02:01:25.342Z,23.24
2023-10-21T02:03:53.846Z,23.37
2023-10-21T02:06:21.229Z,23.35
2023-10-21T02:08:48.886Z,23.33
2023-10-21T02:11:21.310Z,23.45
2023-10-21T02:13:49.003Z,23.51
2023-10-21T02:16:16.254Z,23.99
2023-10-21T02:18:44.146Z,24.14
2023-10-21T02:21:11.657Z,24.30
2023-10-21T02:23:39.408Z,24.16
2023-10-21T02:26:10.667Z,24.06
2023-10-21T02:28:38.224Z,24.17
2023-10-21T02:31:05.536Z,24.30
2023-10-21T02:33:33.319Z,24.25
2023-10-21T02:36:00.829Z,24.31
2023-10-21T02:38:28.423Z,24.21
2023-10-21T02:40:55.835Z,24.25
2023-10-21T02:43:23.927Z,24.24
2023-10-21T02:45:51.334Z,24.20
2023-10-21T02:48:19.007Z,24.16
2023-10-21T02:50:46.314Z,24.12
2023-10-21T02:53:13.867Z,23.98
2023-10-21T02:55:41.078Z,23.83
2023-10-21T02:58:08.710Z,23.77
2023-10-21T03:00:35.972Z,23.74
2023-10-21T03:03:03.948Z,23.69
2023-10-21T03:05:31.354Z,23.78
2023-10-21T03:07:58.954Z,23.79
2023-10-21T03:10:26.264Z,23.82
2023-10-21T03:12:53.853Z,23.82
2023-10-21T03:15:21.104Z,23.73
2023-10-21T03:17:48.930Z,23.69
2023-10-21T03:20:17.775Z,23.70
2023-10-21T03:22:45.730Z,23.63
2023-10-21T03:25:13.054Z,23.78
2023-10-21T03:27:40.649Z,23.81
2023-10-21T03:30:08.962Z,23.84
2023-10-21T03:32:37.535Z,23.79
2023-10-21T03:35:05.645Z,23.78
2023-10-21T03:37:35.377Z,23.71
2023-10-21T03:40:07.160Z,23.64
2023-10-21T03:42:35.123Z,23.63
2023-10-21T03:45:03.373Z,23.69
2023-10-21T03:47:31.052Z,23.53
2023-10-21T03:49:59.027Z,23.61
2023-10-21T03:52:26.643Z,23.52
2023-10-21T03:54:53.865Z,23.57
2023-10-21T03:57:23.134Z,23.70
2023-10-21T03:59:50.757Z,23.68
2023-10-21T04:02:18.337Z,23.61
2023-10-21T04:04:45.663Z,23.43
2023-10-21T04:07:13.431Z,23.27
2023-10-21T04:09:40.930Z,23.23
2023-10-21T04:12:08.790Z,23.35
2023-10-21T04:14:36.314Z,23.33
2023-10-21T04:17:04.307Z,23.33
2023-10-21T04:19:31.500Z,23.34
2023-10-21T04:22:00.189Z,23.33
2023-10-21T04:24:27.612Z,23.41
2023-10-21T04:26:55.678Z,23.66
2023-10-21T04:29:23.044Z,23.64
2023-10-21T04:31:50.592Z,23.72
2023-10-21T04:34:17.760Z,23.85
2023-10-21T04:36:45.304Z,23.96
2023-10-21T04:39:12.573Z,23.93
2023-10-21T04:41:40.417Z,23.94
2023-10-21T04:44:08.490Z,23.82
2023-10-21T04:46:36.079Z,23.44
2023-10-21T04:49:03.491Z,23.47
2023-10-21T04:51:31.046Z,23.42
2023-10-21T04:53:58.616Z,23.31
2023-10-21T04:56:29.366Z,23.16
2023-10-21T04:58:56.825Z,23.07
2023-10-21T05:01:24.544Z,23.07
2023-10-21T05:03:52.167Z,22.98
2023-10-21T05:06:19.858Z,22.94
2023-10-21T05:08:47.462Z,22.85
2023-10-21T05:11:15.037Z,22.83
2023-10-21T05:13:43.161Z,22.70
2023-10-21T05:16:10.758Z,22.70
2023-10-21T05:18:37.998Z,22.90
2023-10-21T05:21:09.113Z,22.96
2023-10-21T05:23:36.730Z,23.30
2023-10-21T05:26:04.995Z,23.51
2023-10-21T05:28:32.568Z,23.94
2023-10-21T05:31:02.522Z,24.23
2023-10-21T05:33:30.267Z,24.53
2023-10-21T05:35:59.957Z,24.96
2023-10-21T05:38:27.785Z,25.15
2023-10-21T05:40:58.967Z,25.27
2023-10-21T05:43:26.548Z,25.33
2023-10-21T05:45:54.835Z,25.33
2023-10-21T05:48:22.640Z,25.28
2023-10-21T05:50:50.425Z,25.35
2023-10-21T05:53:17.811Z,25.38
2023-10-21T05:55:45.383Z,25.41
2023-10-21T05:58:14.389Z,25.42
2023-10-21T06:00:42.007Z,25.44
2023-10-21T06:03:09.480Z,25.45
2023-10-21T06:05:38.115Z,25.40
2023-10-21T06:08:05.920Z,25.34
2023-10-21T06:10:33.635Z,25.41
2023-10-21T06:13:00.868Z,25.35
2023-10-21T06:15:29.124Z,25.38
2023-10-21T06:17:56.435Z,25.26
2023-10-21T06:20:25.507Z,25.20
2023-10-21T06:22:55.183Z,25.08
2023-10-21T06:25:22.835Z,24.92
2023-10-21T06:27:50.221Z,24.89
2023-10-21T06:30:17.970Z,24.81
2023-10-21T06:32:45.271Z,24.61
2023-10-21T06:35:13.953Z,24.48
2023-10-21T06:37:45.057Z,24.42
2023-10-21T06:40:19.119Z,24.41
2023-10-21T06:42:57.401Z,24.58
2023-10-21T06:45:27.061Z,24.49
2023-10-21T06:47:55.022Z,24.26
2023-10-21T06:50:24.136Z,24.02
2023-10-21T06:52:53.566Z,23.90
2023-10-21T06:55:21.669Z,23.81
2023-10-21T06:57:48.996Z,23.74
2023-10-21T07:00:17.590Z,23.78
2023-10-21T07:02:45.023Z,23.90
2023-10-21T07:05:12.796Z,23.96
2023-10-21T07:07:43.391Z,23.93
2023-10-21T07:10:11.376Z,23.96
2023-10-21T07:12:40.196Z,23.97
2023-10-21T07:15:11.008Z,23.81
2023-10-21T07:17:38.428Z,23.73
2023-10-21T07:20:09.714Z,23.78
2023-10-21T07:22:37.576Z,23.76
2023-10-21T07:25:09.951Z,23.65
2023-10-21T07:27:38.781Z,23.61
2023-10-21T07:30:08.203Z,23.66
2023-10-21T07:32:35.516Z,23.61
2023-10-21T07:35:04.789Z,23.63
2023-10-21T07:37:32.620Z,23.66
2023-10-21T07:40:01.105Z,23.57
2023-10-21T07:42:28.624Z,23.54
2023-10-21T07:44:56.390Z,23.43
2023-10-21T07:47:24.174Z,23.38
2023-10-21T07:49:55.649Z,23.40
2023-10-21T07:52:24.222Z,23.43
2023-10-21T07:54:56.249Z,23.38
2023-10-21T07:57:24.071Z,23.38
2023-10-21T07:59:52.248Z,23.33
2023-10-21T08:02:48.298Z,23.47
2023-10-21T08:05:25.880Z,23.41
2023-10-21T08:07:59.250Z,23.40
2023-10-21T08:10:52.894Z,23.20
2023-10-21T08:13:35.536Z,23.10
2023-10-21T08:16:30.476Z,23.12
2023-10-21T08:19:00.054Z,22.99
2023-10-21T08:21:31.423Z,22.90
2023-10-21T08:24:01.214Z,22.80
2023-10-21T08:26:33.392Z,22.67
2023-10-21T08:29:10.514Z,22.59
2023-10-21T08:31:49.037Z,22.49
2023-10-21T08:34:16.407Z,22.51
2023-10-21T08:36:45.725Z,22.45
2023-10-21T08:39:14.210Z,22.46
2023-10-21T08:41:42.269Z,22.44
2023-10-21T08:44:10.180Z,22.44
2023-10-21T08:46:39.286Z,22.36
2023-10-21T08:49:09.918Z,22.33
2023-10-21T08:51:38.741Z,22.30
2023-10-21T08:54:08.380Z,22.21
2023-10-21T08:56:37.340Z,22.27
2023-10-21T08:59:07.052Z,22.19
2023-10-21T09:01:36.841Z,22.18
2023-10-21T09:04:04.875Z,22.12
2023-10-21T09:06:33.007Z,22.16
2023-10-21T09:09:01.775Z,22.16
2023-10-21T09:11:31.579Z,22.16
2023-10-21T09:14:00.383Z,22.13
2023-10-21T09:16:33.223Z,21.97
2023-10-21T09:19:08.847Z,21.90
2023-10-21T09:21:40.184Z,21.89
2023-10-21T09:24:10.902Z,21.92
2023-10-21T09:26:43.871Z,21.97
2023-10-21T09:29:13.131Z,21.99
2023-10-21T09:31:50.090Z,22.06
2023-10-21T09:34:33.357Z,22.01
2023-10-21T09:37:04.146Z,22.06
2023-10-21T09:39:39.552Z,22.11
2023-10-21T09:42:08.121Z,22.15
2023-10-21T09:44:36.655Z,22.19
2023-10-21T09:47:08.175Z,22.23
2023-10-21T09:49:41.857Z,22.25
2023-10-21T09:52:16.316Z,22.30
2023-10-21T09:54:51.058Z,22.26
2023-10-21T09:57:19.705Z,22.26
2023-10-21T09:59:48.523Z,22.23
2023-10-21T10:02:17.269Z,22.32
2023-10-21T10:04:45.060Z,22.33
2023-10-21T10:07:33.585Z,22.37
2023-10-21T10:10:08.929Z,22.36
2023-10-21T10:12:49.012Z,22.25
2023-10-21T10:15:34.045Z,22.27
2023-10-21T10:18:06.917Z,22.26
2023-10-21T10:20:59.598Z,22.24
2023-10-21T10:23:31.253Z,22.25
2023-10-21T10:25:59.498Z,22.23
2023-10-21T10:28:28.462Z,22.31
2023-10-21T10:30:58.189Z,22.25
2023-10-21T10:33:36.455Z,22.20
2023-10-21T10:36:40.071Z,22.26
2023-10-21T10:39:42.552Z,22.34
2023-10-21T10:42:14.278Z,22.37
2023-10-21T10:45:09.123Z,22.49
2023-10-21T10:47:41.089Z,22.55
2023-10-21T10:50:19.858Z,22.53
2023-10-21T10:53:06.221Z,22.55
2023-10-21T10:55:37.006Z,22.64
2023-10-21T10:58:10.040Z,22.71
2023-10-21T11:00:40.736Z,22.79
2023-10-21T11:03:20.196Z,22.78
2023-10-21T11:05:49.763Z,22.78
2023-10-21T11:08:19.405Z,22.83
2023-10-21T11:10:48.725Z,22.88
2023-10-21T11:13:25.833Z,22.88
2023-10-21T11:15:56.040Z,22.90
2023-10-21T11:18:28.151Z,22.88
2023-10-21T11:20:55.829Z,22.93
2023-10-21T11:23:29.533Z,22.99
2023-10-21T11:26:00.124Z,23.00
2023-10-21T11:28:33.686Z,23.04
2023-10-21T11:31:04.200Z,23.08
2023-10-21T11:33:31.786Z,23.07
2023-10-21T11:36:06.400Z,23.11
2023-10-21T11:38:36.346Z,23.10
2023-10-21T11:41:08.882Z,23.17
2023-10-21T11:43:36.491Z,23.11
2023-10-21T11:46:07.269Z,23.10
2023-10-21T11:48:34.558Z,23.08
2023-10-21T11:51:03.071Z,23.16
2023-10-21T11:53:33.005Z,23.15
2023-10-21T11:56:23.400Z,23.06
2023-10-21T11:59:09.822Z,23.11
2023-10-21T12:01:56.031Z,23.14
2023-10-21T12:04:41.907Z,23.11
2023-10-21T12:07:28.655Z,23.12
2023-10-21T12:10:14.417Z,23.13
2023-10-21T12:12:50.907Z,23.09
2023-10-21T12:15:41.516Z,23.14
2023-10-21T12:18:12.385Z,23.16
2023-10-21T12:20:45.764Z,23.16
2023-10-21T12:23:32.182Z,23.23
2023-10-21T12:26:18.932Z,23.22
2023-10-21T12:28:46.597Z,23.19
2023-10-21T12:31:32.454Z,23.23
2023-10-21T12:34:18.548Z,23.27
2023-10-21T12:37:04.223Z,23.25
2023-10-21T12:39:48.599Z,23.21
2023-10-21T12:42:22.967Z,23.25
2023-10-21T12:45:04.861Z,23.20
2023-10-21T12:47:32.175Z,23.18
2023-10-21T12:49:59.747Z,23.22
2023-10-21T12:52:27.082Z,23.15
2023-10-21T12:54:54.950Z,23.11
2023-10-21T12:57:22.726Z,23.12
2023-10-21T12:59:51.814Z,23.20
2023-10-21T13:02:19.335Z,23.20
2023-10-21T13:04:47.221Z,23.27
2023-10-21T13:07:14.585Z,23.28
2023-10-21T13:09:44.110Z,23.27
2023-10-21T13:12:15.962Z,23.28
2023-10-21T13:14:45.989Z,23.32
2023-10-21T13:17:13.690Z,23.35
2023-10-21T13:19:41.494Z,23.34
2023-10-21T13:22:09.091Z,23.34
2023-10-21T13:24:37.613Z,23.29
2023-10-21T13:27:06.360Z,23.24
2023-10-21T13:29:34.307Z,23.24
2023-10-21T13:32:10.650Z,23.21
2023-10-21T13:34:39.668Z,23.13
2023-10-21T13:37:08.700Z,23.18
2023-10-21T13:39:40.530Z,23.19
2023-10-21T13:42:17.443Z,23.17
2023-10-21T13:44:48.477Z,23.14
2023-10-21T13:47:19.797Z,23.17
2023-10-21T13:49:48.972Z,23.13
2023-10-21T13:52:22.232Z,23.12
2023-10-21T13:54:51.512Z,23.04
2023-10-21T14:00:33.502Z,23.10
2023-10-21T14:03:23.425Z,23.15
2023-10-21T14:05:53.475Z,23.14
2023-10-21T14:08:27.434Z,23.15
2023-10-21T14:10:57.075Z,23.14
2023-10-21T14:13:27.940Z,23.17
2023-10-21T14:16:06.217Z,23.16
2023-10-21T14:18:34.097Z,23.14
2023-10-21T14:21:02.014Z,23.17
2023-10-21T14:23:29.837Z,23.17
2023-10-21T14:26:01.582Z,23.21
2023-10-21T14:28:31.964Z,23.20
2023-10-21T14:31:01.482Z,23.20
2023-10-21T14:33:32.873Z,23.18
2023-10-21T14:36:07.543Z,23.18
2023-10-21T14:38:36.123Z,23.15
2023-10-21T14:41:11.211Z,23.10
2023-10-21T14:44:03.263Z,23.08
2023-10-21T14:46:31.670Z,23.12
2023-10-21T14:48:59.048Z,23.12
2023-10-21T14:51:27.856Z,23.09
2023-10-21T14:54:01.955Z,23.13
2023-10-21T14:56:32.983Z,23.16
2023-10-21T14:59:01.313Z,23.14
2023-10-21T15:01:29.551Z,23.16
2023-10-21T15:03:57.210Z,23.14
2023-10-21T15:06:31.851Z,23.16
2023-10-21T15:09:01.684Z,23.21
2023-10-21T15:11:31.815Z,23.26
2023-10-21T15:13:59.287Z,23.23
2023-10-21T15:16:26.924Z,23.29
2023-10-21T15:18:54.181Z,23.34
2023-10-21T15:21:22.708Z,23.33
2023-10-21T15:23:53.546Z,23.26
2023-10-21T15:27:13.098Z,23.32
2023-10-21T15:29:43.470Z,23.24
2023-10-21T15:32:14.702Z,23.24
2023-10-21T15:34:48.080Z,23.19
2023-10-21T15:37:16.232Z,23.15
2023-10-21T15:39:46.909Z,23.20
2023-10-21T15:42:17.270Z,23.06
2023-10-21T15:44:48.251Z,23.09
2023-10-21T15:47:17.012Z,23.03
2023-10-21T15:49:45.623Z,22.99
2023-10-21T15:52:18.973Z,22.98
2023-10-21T15:54:46.342Z,22.97
2023-10-21T15:57:14.462Z,22.91
2023-10-21T15:59:42.587Z,22.83
2023-10-21T16:02:11.347Z,22.73
2023-10-21T16:04:39.340Z,22.63
2023-10-21T16:07:07.025Z,22.60
2023-10-21T16:09:34.925Z,22.63
2023-10-21T16:12:02.635Z,22.60
2023-10-21T16:14:34.873Z,22.58
2023-10-21T16:17:02.867Z,22.48
2023-10-21T16:19:31.598Z,22.52
2023-10-21T16:21:59.257Z,22.46
2023-10-21T16:24:28.673Z,22.47
2023-10-21T16:26:56.712Z,22.46
2023-10-21T16:29:24.022Z,22.48
2023-10-21T16:31:54.315Z,22.42
2023-10-21T16:34:23.202Z,22.47
2023-10-21T16:36:51.318Z,22.49
2023-10-21T16:39:18.541Z,22.43
2023-10-21T16:41:46.431Z,22.47
2023-10-21T16:44:13.965Z,22.46
2023-10-21T16:46:44.740Z,22.45
2023-10-21T16:49:11.982Z,22.45
2023-10-21T16:51:39.636Z,22.41
2023-10-21T16:54:07.058Z,22.35
2023-10-21T16:56:34.743Z,22.41
2023-10-21T16:59:07.942Z,22.38
2023-10-21T17:01:35.818Z,22.39
2023-10-21T17:04:03.407Z,22.39
2023-10-21T17:06:32.458Z,22.38
2023-10-21T17:09:00.788Z,22.34
2023-10-21T17:11:28.479Z,22.34
2023-10-21T17:13:58.525Z,22.34
2023-10-21T17:16:26.108Z,22.45
2023-10-21T17:18:56.785Z,22.62
2023-10-21T17:21:26.902Z,22.63
2023-10-21T17:23:54.920Z,22.62
2023-10-21T17:26:22.982Z,22.67
2023-10-21T17:28:51.128Z,22.65
2023-10-21T17:31:21.182Z,22.61
2023-10-21T17:33:51.151Z,22.65
2023-10-21T17:36:21.918Z,22.50
2023-10-21T17:38:52.915Z,22.40
2023-10-21T17:41:20.700Z,22.29
2023-10-21T17:43:50.207Z,22.25
2023-10-21T17:46:19.242Z,22.16
2023-10-21T17:48:46.539Z,22.13
2023-10-21T17:51:15.948Z,22.18
2023-10-21T17:53:44.365Z,22.14
2023-10-21T17:56:13.018Z,22.14
2023-10-21T17:58:40.676Z,22.07
2023-10-21T18:01:10.802Z,22.08
2023-10-21T18:03:40.357Z,22.11
2023-10-21T18:06:08.245Z,22.08
2023-10-21T18:08:35.876Z,22.24
2023-10-21T18:11:03.368Z,22.07
2023-10-21T18:13:35.406Z,22.04
2023-10-21T18:16:04.567Z,21.83
2023-10-21T18:18:33.104Z,21.61
2023-10-21T18:21:00.786Z,21.49
2023-10-21T18:23:29.434Z,21.38
2023-10-21T18:26:06.339Z,21.31
2023-10-21T18:28:35.241Z,21.30
2023-10-21T18:31:06.207Z,21.27
2023-10-21T18:33:33.623Z,21.15
2023-10-21T18:36:04.183Z,21.09
2023-10-21T18:38:33.487Z,21.03
2023-10-21T18:41:02.085Z,20.96
2023-10-21T18:43:35.157Z,20.95
2023-10-21T18:46:09.326Z,20.91
2023-10-21T18:48:39.534Z,20.84
2023-10-21T18:51:14.432Z,20.82
2023-10-21T18:53:41.892Z,20.75
2023-10-21T18:56:11.947Z,20.66
2023-10-21T18:58:39.297Z,20.64
2023-10-21T19:01:07.452Z,20.61
2023-10-21T19:03:35.124Z,20.53
2023-10-21T19:06:02.686Z,20.51
2023-10-21T19:08:30.062Z,20.46
2023-10-21T19:10:57.744Z,20.41
2023-10-21T19:13:25.052Z,20.38
2023-10-21T19:15:54.012Z,20.38
2023-10-21T19:18:22.490Z,20.17
2023-10-21T19:20:58.792Z,20.12
2023-10-21T19:23:35.973Z,20.12
2023-10-21T19:26:06.912Z,20.06
2023-10-21T19:28:36.058Z,19.97
2023-10-21T19:31:15.297Z,20.00
2023-10-21T19:33:43.358Z,19.86
2023-10-21T19:36:12.811Z,19.86
2023-10-21T19:38:40.449Z,19.65
2023-10-21T19:41:10.958Z,19.44
2023-10-21T19:43:38.509Z,19.44
2023-10-21T19:46:08.040Z,19.48
2023-10-21T19:48:38.056Z,19.62
2023-10-21T19:51:15.614Z,19.51
2023-10-21T19:53:49.067Z,19.62
2023-10-21T19:56:17.355Z,19.65
2023-10-21T19:58:47.533Z,19.82
2023-10-21T20:01:19.525Z,19.90
2023-10-21T20:03:48.980Z,19.96
2023-10-21T20:06:19.607Z,19.97
2023-10-21T20:08:48.294Z,20.27
2023-10-21T20:11:23.583Z,20.33
2023-10-21T20:13:55.391Z,20.36
2023-10-21T20:16:29.172Z,20.35
2023-10-21T20:18:56.804Z,20.44
2023-10-21T20:21:24.643Z,20.52
2023-10-21T20:23:56.480Z,20.72
2023-10-21T20:26:24.712Z,20.80
2023-10-21T20:28:56.161Z,20.90
2023-10-21T20:31:25.496Z,21.22
2023-10-21T20:33:53.381Z,21.33
2023-10-21T20:36:24.355Z,21.36
2023-10-21T20:38:52.895Z,21.65
2023-10-21T20:41:21.493Z,21.80
2023-10-21T20:43:49.820Z,21.78
2023-10-21T20:46:43.354Z,21.73
2023-10-21T20:49:10.678Z,21.58
2023-10-21T20:51:38.337Z,21.37
2023-10-21T20:54:07.430Z,21.19
2023-10-21T20:56:37.483Z,21.09
2023-10-21T20:59:06.739Z,20.95
2023-10-21T21:01:37.900Z,20.76
2023-10-21T21:04:07.868Z,20.72
2023-10-21T21:06:38.176Z,20.55
2023-10-21T21:09:06.864Z,20.39
2023-10-21T21:11:36.017Z,20.26
2023-10-21T21:14:03.291Z,20.05
2023-10-21T21:16:31.220Z,19.90
2023-10-21T21:18:59.843Z,19.71
2023-10-21T21:21:28.041Z,19.58
2023-10-21T21:23:57.351Z,19.50
2023-10-21T21:26:25.558Z,19.43
2023-10-21T21:28:53.955Z,19.45
2023-10-21T21:31:23.137Z,19.49
2023-10-21T21:33:50.740Z,19.55
2023-10-21T21:36:21.766Z,19.50
2023-10-21T21:38:49.264Z,19.66
2023-10-21T21:41:21.260Z,19.64
2023-10-21T21:43:53.186Z,19.77
2023-10-21T21:46:21.977Z,19.79
2023-10-21T21:48:49.684Z,19.82
2023-10-21T21:51:17.607Z,19.82
2023-10-21T21:53:45.484Z,19.85
2023-10-21T21:56:13.132Z,19.94
2023-10-21T21:58:41.134Z,19.93
2023-10-21T22:01:08.835Z,19.92
2023-10-21T22:03:36.800Z,19.89
2023-10-21T22:06:05.678Z,19.95
2023-10-21T22:08:35.204Z,20.00
2023-10-21T22:11:10.433Z,20.00
2023-10-21T22:13:39.514Z,20.07
2023-10-21T22:16:09.821Z,20.08
2023-10-21T22:18:37.241Z,20.17
2023-10-21T22:21:07.720Z,20.21
2023-10-21T22:23:54.428Z,20.24
2023-10-21T22:26:32.154Z,20.32
2023-10-21T22:29:04.884Z,20.38
2023-10-21T22:31:34.580Z,20.39
2023-10-21T22:34:06.976Z,20.49
2023-10-21T22:36:39.180Z,20.40
2023-10-21T22:39:28.777Z,20.36
2023-10-21T22:41:58.007Z,20.34
2023-10-21T22:44:25.640Z,20.32
2023-10-21T22:46:54.294Z,20.30
2023-10-21T22:49:47.910Z,20.41
2023-10-21T22:52:19.077Z,20.40
2023-10-21T22:54:47.819Z,20.42
2023-10-21T22:57:15.594Z,20.40
2023-10-21T22:59:42.853Z,20.45
2023-10-21T23:02:10.468Z,20.56
2023-10-21T23:04:38.114Z,20.48
2023-10-21T23:07:10.292Z,20.36
2023-10-21T23:09:41.968Z,20.26
2023-10-21T23:12:19.736Z,20.12
2023-10-21T23:14:49.350Z,20.05
2023-10-21T23:17:18.789Z,20.09
2023-10-21T23:19:47.497Z,20.05
2023-10-21T23:22:15.738Z,20.08
2023-10-21T23:24:43.386Z,20.10
2023-10-21T23:27:14.632Z,20.14
2023-10-21T23:29:42.795Z,20.21
2023-10-21T23:32:21.274Z,20.24
2023-10-21T23:34:49.152Z,20.16
2023-10-21T23:37:18.084Z,20.18
2023-10-21T23:39:45.357Z,20.23
2023-10-21T23:42:15.440Z,20.17
2023-10-21T23:44:43.296Z,20.12
2023-10-21T23:47:10.907Z,20.10
2023-10-21T23:49:38.814Z,20.05
2023-10-21T23:52:07.810Z,20.02
2023-10-21T23:54:37.520Z,20.05
2023-10-21T23:57:07.649Z,20.00
2023-10-21T23:59:43.162Z,19.98
